Time;durP1;ratioP1;P1;durP2;ratioP2;P2;SDS_P1;SDS_P2;PMS_P1;PMS_P2;Temp;Humidity;BMP_temperature;BMP_pressure;BME280_temperature;BME280_humidity;BME280_pressure;Samples;Min_cycle;Max_cycle;Signal;HPM_P1;HPM_P2
2021/12/29 00:01:23;;;;;;;0.45;0.45;;;;;;;8.35;86.23;97509.34;4954052;28;20392;-70
2021/12/29 00:03:48;;;;;;;0.52;0.52;;;;;;;8.36;85.54;97505.91;4953589;28;20039;-70
2021/12/29 00:06:13;;;;;;;0.40;0.40;;;;;;;8.35;87.06;97527.41;4948244;29;20039;-70
2021/12/29 00:08:39;;;;;;;0.40;0.40;;;;;;;8.35;86.47;97524.84;4940070;29;20039;-70
2021/12/29 00:11:04;;;;;;;0.50;0.50;;;;;;;8.37;86.14;97533.44;4957501;28;20031;-70
2021/12/29 00:13:30;;;;;;;1.65;0.73;;;;;;;8.32;87.19;97535.28;4957504;28;20039;-70
2021/12/29 00:15:58;;;;;;;4.63;1.13;;;;;;;8.34;86.60;97536.06;4957245;28;20481;-70
2021/12/29 00:18:34;;;;;;;0.70;0.70;;;;;;;8.29;86.60;97535.34;4957289;28;20114;-70
2021/12/29 00:21:02;;;;;;;0.80;0.80;;;;;;;8.36;86.52;97552.34;4957340;28;20488;-70
2021/12/29 00:23:27;;;;;;;0.40;0.40;;;;;;;8.31;87.23;97548.19;4957196;28;20031;-71
2021/12/29 00:25:54;;;;;;;0.65;0.65;;;;;;;8.31;87.90;97554.19;4957357;28;20099;-71
2021/12/29 00:28:19;;;;;;;0.50;0.50;;;;;;;8.36;87.14;97551.47;4957151;28;20027;-71
2021/12/29 00:30:45;;;;;;;0.40;0.40;;;;;;;8.32;86.59;97561.06;4957221;28;20035;-71
2021/12/29 00:33:11;;;;;;;0.40;0.40;;;;;;;8.31;87.00;97564.53;4957009;28;20047;-71
2021/12/29 00:35:38;;;;;;;0.73;0.73;;;;;;;8.29;87.20;97571.47;4956169;28;20516;-71
2021/12/29 00:38:06;;;;;;;0.50;0.50;;;;;;;8.39;86.20;97577.25;4937676;29;20024;-70
2021/12/29 00:40:34;;;;;;;0.30;0.30;;;;;;;8.36;86.84;97578.16;4955227;29;20114;-70
2021/12/29 00:42:59;;;;;;;0.40;0.40;;;;;;;8.36;87.99;97578.16;4957015;28;20121;-70
2021/12/29 00:45:25;;;;;;;0.40;0.40;;;;;;;8.42;85.99;97578.00;4956815;29;20484;-71
2021/12/29 00:47:50;;;;;;;0.63;0.63;;;;;;;8.42;86.05;97587.50;4956847;28;20492;-71
2021/12/29 00:50:18;;;;;;;0.60;0.60;;;;;;;8.48;86.61;97595.06;4956812;28;20023;-71
2021/12/29 00:52:44;;;;;;;0.40;0.40;;;;;;;8.47;85.84;97596.78;4956891;28;20023;-71
2021/12/29 00:55:10;;;;;;;0.35;0.35;;;;;;;8.49;86.17;97604.50;4956881;28;20031;-71
2021/12/29 00:57:36;;;;;;;0.40;0.40;;;;;;;8.42;86.23;97601.25;4956651;28;20105;-71
2021/12/29 05:17:37;;;;;;;0.50;0.50;;;;;;;7.63;100.00;97997.75;4916773;29;20395;-70
2021/12/29 05:20:03;;;;;;;0.50;0.50;;;;;;;7.64;100.00;97999.44;4918081;29;20434;-70
2021/12/29 05:22:28;;;;;;;0.40;0.40;;;;;;;7.56;100.00;97993.59;4918431;29;20414;-70
2021/12/29 05:24:53;;;;;;;0.40;0.40;;;;;;;7.51;100.00;97988.53;4918153;29;20401;-70
2021/12/29 05:27:18;;;;;;;0.40;0.40;;;;;;;7.59;100.00;97996.09;4918013;29;20032;-70
2021/12/29 05:29:44;;;;;;;0.40;0.40;;;;;;;7.66;100.00;97992.53;4918427;29;20064;-70
2021/12/29 05:32:09;;;;;;;0.40;0.40;;;;;;;7.48;100.00;97994.56;4918004;29;20028;-70
2021/12/29 05:34:35;;;;;;;0.40;0.40;;;;;;;7.64;100.00;98002.00;4918139;29;20388;-70
2021/12/29 05:37:00;;;;;;;0.43;0.43;;;;;;;7.64;100.00;97994.28;4924020;29;20035;-70
2021/12/29 05:39:25;;;;;;;0.40;0.40;;;;;;;7.68;100.00;98011.41;4917684;29;20036;-69
2021/12/29 05:41:51;;;;;;;0.45;0.45;;;;;;;7.53;100.00;98012.53;4917870;29;20052;-70
2021/12/29 05:44:17;;;;;;;0.45;0.45;;;;;;;7.55;100.00;98015.94;4916451;29;20080;-70
2021/12/29 05:46:43;;;;;;;0.40;0.40;;;;;;;7.47;100.00;98013.50;4917418;29;20028;-71
2021/12/29 05:49:09;;;;;;;4.18;0.73;;;;;;;7.54;100.00;98024.53;4917875;29;20031;-70
2021/12/29 05:51:35;;;;;;;0.40;0.40;;;;;;;7.43;100.00;98029.88;4917562;29;20028;-70
2021/12/29 05:54:00;;;;;;;0.35;0.35;;;;;;;7.51;100.00;98032.34;4917967;29;20541;-70
2021/12/29 05:56:26;;;;;;;0.52;0.52;;;;;;;7.47;100.00;98038.44;4917272;29;20024;-70
2021/12/29 05:58:52;;;;;;;0.30;0.30;;;;;;;7.44;100.00;98044.47;4917298;29;20087;-70
2021/12/29 06:01:17;;;;;;;0.40;0.40;;;;;;;7.51;100.00;98044.38;4917344;29;20031;-70
2021/12/29 06:03:43;;;;;;;0.30;0.30;;;;;;;7.54;100.00;98049.47;4917471;29;20108;-70
2021/12/29 06:06:09;;;;;;;0.40;0.40;;;;;;;7.58;100.00;98056.28;4921646;29;20035;-69
2021/12/29 06:08:35;;;;;;;0.40;0.40;;;;;;;7.46;100.00;98053.03;4918460;29;20028;-70
2021/12/29 06:11:00;;;;;;;1.02;0.35;;;;;;;7.65;100.00;98063.03;4917221;29;20059;-70
2021/12/29 06:13:26;;;;;;;0.40;0.40;;;;;;;7.57;100.00;98063.16;4917164;29;20473;-69
2021/12/29 06:15:52;;;;;;;0.40;0.40;;;;;;;7.43;100.00;98065.13;4916724;29;20035;-70
2021/12/29 06:18:17;;;;;;;0.40;0.40;;;;;;;7.36;100.00;98066.97;4917279;29;20036;-70
2021/12/29 06:20:42;;;;;;;0.50;0.50;;;;;;;7.30;100.00;98061.91;4917156;29;20028;-69
2021/12/29 06:23:12;;;;;;;0.40;0.40;;;;;;;7.21;100.00;98056.91;4916990;29;20024;-70
2021/12/29 06:25:38;;;;;;;0.40;0.40;;;;;;;7.18;100.00;98062.09;4916959;29;20437;-70
2021/12/29 06:28:04;;;;;;;0.40;0.40;;;;;;;7.17;100.00;98061.25;4916687;29;20047;-70
2021/12/29 06:30:29;;;;;;;0.32;0.32;;;;;;;7.22;100.00;98059.47;4916885;29;20032;-70
2021/12/29 06:32:55;;;;;;;1.05;0.98;;;;;;;7.22;100.00;98059.47;4916814;29;20072;-70
2021/12/29 06:35:20;;;;;;;0.43;0.43;;;;;;;7.37;100.00;98058.34;4916872;29;20032;-70
2021/12/29 06:37:45;;;;;;;0.40;0.40;;;;;;;7.17;100.00;98060.41;4922773;29;20027;-70
2021/12/29 06:40:13;;;;;;;0.40;0.40;;;;;;;7.31;100.00;98053.31;4916637;29;20047;-70
2021/12/29 06:42:38;;;;;;;0.65;0.65;;;;;;;7.24;100.00;98051.69;4916514;29;20115;-70
2021/12/29 06:45:04;;;;;;;1.27;0.70;;;;;;;7.24;100.00;98056.84;4916615;29;20119;-70
2021/12/29 06:47:30;;;;;;;0.30;0.30;;;;;;;7.24;100.00;98062.00;4916362;29;20043;-70
2021/12/29 06:49:55;;;;;;;0.50;0.50;;;;;;;7.30;100.00;98067.06;4916709;29;20210;-69
2021/12/29 06:52:20;;;;;;;0.40;0.40;;;;;;;7.41;100.00;98065.16;4916536;29;20490;-70
2021/12/29 06:54:46;;;;;;;0.40;0.40;;;;;;;7.50;100.00;98071.03;4916590;29;20059;-69
2021/12/29 06:57:13;;;;;;;0.40;0.40;;;;;;;7.53;100.00;98076.13;4916192;29;20054;-70
2021/12/29 06:59:39;;;;;;;0.38;0.38;;;;;;;7.58;100.00;98077.75;4916443;29;20378;-70
2021/12/29 07:02:04;;;;;;;0.40;0.40;;;;;;;7.51;100.00;98095.94;4915588;29;20034;-70
2021/12/29 07:04:30;;;;;;;0.65;0.65;;;;;;;7.42;100.00;98084.88;4916228;29;20034;-70
2021/12/29 07:06:56;;;;;;;0.40;0.40;;;;;;;7.41;100.00;98096.09;4922378;29;20027;-70
2021/12/29 07:09:22;;;;;;;0.40;0.40;;;;;;;7.61;100.00;98097.47;4916182;29;20389;-70
2021/12/29 07:11:48;;;;;;;0.75;0.75;;;;;;;7.53;100.00;98094.16;4915089;29;20465;-70
2021/12/29 07:14:13;;;;;;;3.42;0.55;;;;;;;7.47;100.00;98111.44;4916153;29;20095;-70
2021/12/29 07:16:43;;;;;;;0.47;0.47;;;;;;;7.42;100.00;98120.97;4915318;29;20038;-70
2021/12/29 07:19:09;;;;;;;2.25;1.23;;;;;;;7.28;100.00;98125.50;4915402;29;20115;-70
2021/12/29 07:21:34;;;;;;;1.10;0.95;;;;;;;7.32;100.00;98131.47;4916005;29;20110;-70
2021/12/29 07:23:59;;;;;;;0.40;0.40;;;;;;;7.28;100.00;98130.66;4916061;29;20473;-70
2021/12/29 07:26:25;;;;;;;0.93;0.93;;;;;;;7.30;100.00;98138.34;4915820;29;20064;-70
2021/12/29 07:28:51;;;;;;;0.60;0.60;;;;;;;7.36;100.00;98144.28;4916000;29;20032;-70
2021/12/29 07:31:18;;;;;;;0.70;0.63;;;;;;;7.30;100.00;98154.69;4916047;29;20034;-70
2021/12/29 07:33:44;;;;;;;0.55;0.55;;;;;;;7.31;100.00;98153.81;4916021;29;20032;-70
2021/12/29 07:36:11;;;;;;;1.55;0.55;;;;;;;7.27;100.00;98164.19;4920641;29;20092;-70
2021/12/29 07:38:37;;;;;;;0.50;0.50;;;;;;;7.40;100.00;98161.41;4916898;29;20024;-70
2021/12/29 07:41:02;;;;;;;0.30;0.30;;;;;;;7.46;100.00;98165.59;4915851;29;20028;-70
2021/12/29 07:43:28;;;;;;;0.40;0.40;;;;;;;7.53;100.00;98162.03;4916078;29;20026;-70
2021/12/29 07:45:54;;;;;;;0.35;0.35;;;;;;;7.68;100.00;98155.78;4915587;29;20434;-70
2021/12/29 07:48:25;;;;;;;0.40;0.40;;;;;;;7.62;100.00;98171.34;4915694;29;20028;-70
2021/12/29 07:50:51;;;;;;;0.77;0.77;;;;;;;7.56;100.00;98168.88;4915669;29;20028;-70
2021/12/29 07:53:16;;;;;;;0.32;0.32;;;;;;;7.44;100.00;98175.91;4915749;29;20116;-70
2021/12/29 07:55:41;;;;;;;1.88;0.82;;;;;;;7.78;100.00;98185.69;4915444;29;20056;-70
2021/12/29 07:58:07;;;;;;;0.65;0.65;;;;;;;7.76;100.00;98179.72;4915784;29;20459;-70
2021/12/29 08:00:32;;;;;;;0.40;0.40;;;;;;;7.77;100.00;98190.88;4915737;29;20367;-70
2021/12/29 08:02:58;;;;;;;0.50;0.50;;;;;;;7.98;100.00;98186.22;4915774;29;20414;-70
2021/12/29 08:05:23;;;;;;;0.40;0.40;;;;;;;7.91;100.00;98194.94;4915633;29;20438;-70
2021/12/29 08:07:48;;;;;;;0.68;0.68;;;;;;;7.88;100.00;98191.56;4921764;29;20475;-70
2021/12/29 08:10:14;;;;;;;0.50;0.50;;;;;;;7.88;100.00;98189.84;4915532;29;20024;-70
2021/12/29 08:12:40;;;;;;;0.40;0.40;;;;;;;7.75;100.00;98187.50;4915808;29;20024;-70
2021/12/29 08:15:06;;;;;;;0.60;0.60;;;;;;;7.77;100.00;98186.56;4915656;29;20086;-70
2021/12/29 08:17:32;;;;;;;0.40;0.40;;;;;;;7.76;100.00;98184.88;4915218;29;20112;-70
2021/12/29 08:19:59;;;;;;;1.30;1.02;;;;;;;7.82;100.00;98192.50;4915393;29;20083;-70
2021/12/29 08:22:24;;;;;;;0.40;0.40;;;;;;;7.86;100.00;98201.91;4915484;29;20159;-71
2021/12/29 08:24:50;;;;;;;0.40;0.40;;;;;;;7.86;100.00;98207.06;4915530;29;20500;-71
2021/12/29 08:27:15;;;;;;;0.50;0.50;;;;;;;7.94;100.00;98205.22;4915222;29;20493;-71
2021/12/29 08:29:41;;;;;;;1.05;0.60;;;;;;;8.03;100.00;98218.84;4918596;29;20028;-71
2021/12/29 08:32:06;;;;;;;0.90;0.90;;;;;;;8.03;100.00;98224.00;4919195;29;20110;-72
2021/12/29 08:34:32;;;;;;;0.60;0.60;;;;;;;8.07;100.00;98221.31;4919124;29;20474;-71
2021/12/29 08:36:57;;;;;;;0.50;0.50;;;;;;;8.16;100.00;98233.22;4925006;29;20525;-70
2021/12/29 08:39:23;;;;;;;1.27;0.80;;;;;;;8.20;100.00;98234.88;4918688;29;20028;-71
2021/12/29 08:41:49;;;;;;;0.82;0.82;;;;;;;8.14;100.00;98233.25;4919052;29;20025;-71
2021/12/29 08:44:16;;;;;;;0.60;0.60;;;;;;;8.36;100.00;98233.75;4919046;29;20032;-71
2021/12/29 08:46:42;;;;;;;0.77;0.77;;;;;;;8.36;100.00;98223.41;4918693;29;20269;-71
2021/12/29 08:49:07;;;;;;;4.72;1.00;;;;;;;8.53;100.00;98225.72;4918629;29;20057;-72
2021/12/29 08:51:33;;;;;;;0.40;0.40;;;;;;;8.60;100.00;98206.63;4918623;29;20441;-71
2021/12/29 08:53:59;;;;;;;0.68;0.68;;;;;;;8.56;100.00;98204.13;4918620;29;20027;-70
2021/12/29 08:56:25;;;;;;;0.40;0.40;;;;;;;8.61;100.00;98210.09;4918548;29;20367;-70
2021/12/29 08:58:53;;;;;;;0.45;0.45;;;;;;;8.55;100.00;98212.75;4918387;29;20024;-70
2021/12/29 09:01:20;;;;;;;1.00;1.00;;;;;;;8.69;100.00;98213.34;4918691;29;20398;-70
2021/12/29 09:03:47;;;;;;;0.98;0.98;;;;;;;8.85;99.40;98212.19;4918351;29;20035;-70
2021/12/29 09:06:12;;;;;;;1.38;1.27;;;;;;;8.74;99.22;98204.63;4923628;29;20027;-70
2021/12/29 09:08:37;;;;;;;1.70;1.60;;;;;;;8.67;99.01;98208.22;4919173;29;20031;-70
2021/12/29 09:11:04;;;;;;;1.20;0.65;;;;;;;8.74;98.89;98208.94;4918461;29;20040;-70
2021/12/29 09:13:30;;;;;;;4.38;0.90;;;;;;;8.75;99.31;98210.63;4918296;29;20032;-71
2021/12/29 09:15:57;;;;;;;0.60;0.60;;;;;;;8.74;98.71;98204.63;4918014;29;20028;-70
2021/12/29 09:18:28;;;;;;;0.77;0.43;;;;;;;8.55;98.98;98203.28;4918149;29;20107;-70
2021/12/29 09:20:55;;;;;;;1.40;0.82;;;;;;;8.44;99.67;98208.66;4917996;29;20024;-70
2021/12/29 09:23:21;;;;;;;0.75;0.52;;;;;;;8.40;100.00;98219.06;4918271;29;20087;-70
2021/12/29 09:25:47;;;;;;;0.50;0.50;;;;;;;8.29;100.00;98221.81;4917671;29;20084;-70
2021/12/29 09:28:15;;;;;;;0.40;0.40;;;;;;;8.24;100.00;98223.63;4918076;29;20111;-70
2021/12/29 09:30:44;;;;;;;0.52;0.52;;;;;;;8.27;100.00;98222.69;4917988;29;20021;-70
2021/12/29 09:33:10;;;;;;;0.95;0.80;;;;;;;8.04;100.00;98230.88;4918115;29;20032;-70
2021/12/29 09:35:36;;;;;;;0.65;0.63;;;;;;;8.27;100.00;98239.06;4918265;29;20036;-70
2021/12/29 09:38:02;;;;;;;0.60;0.60;;;;;;;8.12;100.00;98228.97;4923279;29;20030;-69
2021/12/29 09:40:27;;;;;;;0.70;0.70;;;;;;;8.28;100.00;98227.88;4917164;29;20389;-70
2021/12/29 09:42:54;;;;;;;2.80;1.08;;;;;;;8.36;100.00;98233.75;4917841;29;20034;-70
2021/12/29 09:45:21;;;;;;;0.60;0.60;;;;;;;8.44;99.34;98242.22;4917843;29;20024;-70
2021/12/29 09:47:47;;;;;;;5.15;1.27;;;;;;;8.69;98.24;98244.34;4917513;29;20435;-70
2021/12/29 09:50:16;;;;;;;0.57;0.57;;;;;;;8.62;97.23;98245.34;4917626;29;20026;-70
2021/12/29 09:52:42;;;;;;;1.95;0.75;;;;;;;8.55;98.49;98243.75;4917731;29;20052;-70
2021/12/29 09:55:11;;;;;;;1.83;1.73;;;;;;;8.87;96.41;98236.25;4917614;29;20441;-70
2021/12/29 09:57:44;;;;;;;0.57;0.57;;;;;;;9.07;94.84;98229.81;4917406;29;20040;-70
2021/12/29 10:00:19;;;;;;;2.70;2.17;;;;;;;9.27;94.62;98230.22;4917192;29;20032;-71
2021/12/29 10:02:45;;;;;;;0.50;0.50;;;;;;;9.43;93.43;98236.78;4916522;29;20024;-70
2021/12/29 10:05:11;;;;;;;0.75;0.75;;;;;;;9.47;92.85;98238.41;4917305;29;20405;-70
2021/12/29 10:07:36;;;;;;;0.47;0.47;;;;;;;9.38;94.19;98243.81;4923485;29;20031;-76
2021/12/29 10:10:14;;;;;;;0.43;0.43;;;;;;;9.57;93.16;98245.97;4917173;29;20398;-70
2021/12/29 10:12:42;;;;;;;0.35;0.35;;;;;;;9.50;92.92;98243.50;4917317;29;20031;-71
2021/12/29 10:15:08;;;;;;;0.40;0.40;;;;;;;9.58;92.08;98245.09;4917090;29;20064;-70
2021/12/29 10:17:33;;;;;;;0.40;0.40;;;;;;;9.62;92.57;98241.53;4917327;29;20032;-70
2021/12/29 10:20:06;;;;;;;0.60;0.50;;;;;;;9.87;91.87;98242.69;4917040;29;20016;-71
2021/12/29 10:22:32;;;;;;;0.45;0.45;;;;;;;9.94;90.31;98236.47;4917123;29;20035;-71
2021/12/29 10:25:05;;;;;;;1.50;1.40;;;;;;;9.86;89.64;98240.97;4917049;29;20035;-71
2021/12/29 10:27:31;;;;;;;0.40;0.40;;;;;;;10.15;89.53;98231.63;4916764;29;20066;-70
2021/12/29 10:29:57;;;;;;;0.63;0.63;;;;;;;10.28;87.88;98235.66;4916857;29;20055;-70
2021/12/29 10:32:24;;;;;;;0.40;0.40;;;;;;;10.11;88.57;98235.22;4917162;29;20032;-70
2021/12/29 10:34:52;;;;;;;0.40;0.40;;;;;;;10.08;88.49;98230.94;4916800;29;20028;-70
2021/12/29 10:37:18;;;;;;;0.30;0.30;;;;;;;9.82;89.64;98229.00;4923096;29;20028;-71
2021/12/29 10:39:47;;;;;;;0.55;0.55;;;;;;;9.97;89.85;98227.78;4916522;29;20390;-70
2021/12/29 10:42:21;;;;;;;0.40;0.40;;;;;;;10.12;89.85;98221.38;4916734;29;20064;-70
2021/12/29 10:44:49;;;;;;;0.40;0.40;;;;;;;10.10;88.25;98215.38;4916636;29;20490;-70
2021/12/29 10:47:16;;;;;;;6.72;2.45;;;;;;;9.87;89.52;98206.47;4916562;29;20028;-70
2021/12/29 10:50:10;;;;;;;10.55;4.20;;;;;;;9.71;92.69;98213.72;4916472;29;20119;-70
2021/12/29 10:52:43;;;;;;;0.55;0.55;;;;;;;9.84;91.36;98216.03;4915061;29;20044;-70
2021/12/29 10:55:19;;;;;;;0.45;0.45;;;;;;;10.19;89.13;98221.16;4916489;29;20110;-71
2021/12/29 10:57:45;;;;;;;0.30;0.30;;;;;;;10.18;88.72;98216.03;4916265;29;20084;-71
2021/12/29 11:00:19;;;;;;;1.08;0.50;;;;;;;10.22;87.78;98228.88;4916427;29;20024;-70
2021/12/29 11:02:46;;;;;;;0.70;0.70;;;;;;;10.02;87.03;98225.94;4916381;29;20103;-70
2021/12/29 11:05:11;;;;;;;2.38;1.10;;;;;;;10.22;82.16;98223.69;4916175;29;20028;-70
2021/12/29 11:07:38;;;;;;;5.10;2.35;;;;;;;10.26;81.75;98227.94;4922589;29;20035;-70
2021/12/29 11:10:21;;;;;;;1.45;1.10;;;;;;;10.14;79.86;98229.94;4915171;29;20035;-70
2021/12/29 11:12:54;;;;;;;1.45;1.23;;;;;;;9.96;80.47;98232.09;4916171;29;20039;-70
2021/12/29 11:15:29;;;;;;;10.57;3.42;;;;;;;9.99;81.08;98226.84;4916010;29;20031;-70
2021/12/29 11:18:00;;;;;;;3.90;1.65;;;;;;;9.83;81.66;98217.75;4915923;29;20031;-70
2021/12/29 11:20:28;;;;;;;7.85;2.22;;;;;;;9.74;81.37;98223.16;4915895;29;20100;-70
2021/12/29 11:23:05;;;;;;;1.98;1.48;;;;;;;9.75;82.53;98222.25;4915941;29;20409;-70
2021/12/29 11:25:32;;;;;;;0.40;0.40;;;;;;;9.85;82.54;98223.75;4916065;29;20054;-70
2021/12/29 11:27:57;;;;;;;1.63;1.30;;;;;;;9.83;82.38;98220.34;4915701;29;20104;-70
2021/12/29 11:30:23;;;;;;;1.83;1.05;;;;;;;9.82;84.17;98218.66;4916537;29;20107;-71
2021/12/29 11:32:49;;;;;;;6.78;3.28;;;;;;;9.82;82.03;98216.06;4915884;29;20401;-71
2021/12/29 11:35:20;;;;;;;13.50;3.30;;;;;;;9.94;83.26;98217.50;4916301;29;20032;-71
2021/12/29 11:37:52;;;;;;;9.85;4.60;;;;;;;10.06;82.55;98206.84;4921973;29;20498;-70
2021/12/29 11:40:24;;;;;;;14.38;6.68;;;;;;;10.01;82.52;98214.72;4915923;29;20468;-70
2021/12/29 11:42:50;;;;;;;1.98;1.27;;;;;;;10.01;82.54;98201.78;4915715;29;20035;-70
2021/12/29 11:45:17;;;;;;;0.60;0.60;;;;;;;9.94;83.37;98213.16;4915787;29;20493;-71
2021/12/29 11:47:43;;;;;;;0.30;0.30;;;;;;;9.93;82.45;98211.47;4915648;29;20028;-70
2021/12/29 11:50:12;;;;;;;0.70;0.70;;;;;;;9.93;83.37;98200.28;4915682;29;20024;-70
2021/12/29 11:52:46;;;;;;;0.98;0.98;;;;;;;9.91;84.77;98202.91;4916106;29;20028;-69
2021/12/29 11:55:16;;;;;;;1.55;0.90;;;;;;;9.94;83.31;98207.16;4915561;29;20485;-72
2021/12/29 11:57:42;;;;;;;1.17;0.50;;;;;;;9.94;83.00;98208.00;4915760;29;20040;-68
2021/12/29 12:00:11;;;;;;;3.45;1.80;;;;;;;10.17;83.41;98203.97;4915673;29;20536;-69
2021/12/29 12:02:36;;;;;;;1.17;1.08;;;;;;;10.17;82.89;98206.56;4915991;29;20485;-68
2021/12/29 12:05:08;;;;;;;0.40;0.40;;;;;;;10.16;82.43;98204.88;4919388;29;20077;-68
2021/12/29 12:07:34;;;;;;;1.02;1.00;;;;;;;10.10;81.79;98205.00;4925590;29;20441;-69
2021/12/29 12:10:03;;;;;;;1.92;0.90;;;;;;;10.09;83.40;98211.94;4919362;29;20095;-71
2021/12/29 12:12:44;;;;;;;0.63;0.63;;;;;;;10.00;83.79;98218.19;4919647;29;20028;-71
2021/12/29 12:15:13;;;;;;;0.80;0.80;;;;;;;9.97;83.67;98215.69;4918253;29;20035;-70
2021/12/29 12:17:41;;;;;;;5.38;3.63;;;;;;;9.72;84.32;98205.09;4919149;29;20036;-72
2021/12/29 12:20:09;;;;;;;3.60;0.40;;;;;;;9.74;84.35;98202.44;4918906;29;20115;-72
2021/12/29 12:23:00;;;;;;;0.52;0.52;;;;;;;9.82;84.78;98213.47;4919088;29;20028;-72
2021/12/29 12:25:30;;;;;;;0.40;0.40;;;;;;;9.72;85.69;98201.66;4917884;29;20091;-72
2021/12/29 12:28:01;;;;;;;0.40;0.40;;;;;;;9.68;83.95;98194.84;4919024;29;20397;-72
2021/12/29 12:30:35;;;;;;;0.38;0.38;;;;;;;9.82;85.18;98203.13;4918968;29;20504;-73
2021/12/29 12:33:17;;;;;;;0.73;0.73;;;;;;;9.67;85.19;98208.66;4919066;29;20103;-75
2021/12/29 12:35:48;;;;;;;0.45;0.45;;;;;;;9.67;85.62;98219.00;4920296;29;20034;-71
2021/12/29 12:38:20;;;;;;;1.10;0.80;;;;;;;9.70;85.80;98211.16;4923204;29;20478;-72
2021/12/29 12:41:06;;;;;;;0.75;0.75;;;;;;;9.80;84.61;98204.88;4918567;29;20064;-72
2021/12/29 12:43:33;;;;;;;0.65;0.55;;;;;;;9.98;85.74;98194.09;4919106;29;20032;-72
2021/12/29 12:45:58;;;;;;;0.95;0.80;;;;;;;9.96;84.65;98190.72;4918546;29;20036;-72
2021/12/29 12:48:28;;;;;;;0.95;0.90;;;;;;;10.07;83.77;98202.53;4918706;29;20397;-73
2021/12/29 12:50:54;;;;;;;;;;;;;;;10.09;84.85;98216.25;4919052;29;20021;-72
2021/12/29 12:53:31;;;;;;;0.60;0.60;;;;;;;10.12;84.64;98219.63;4918689;29;19911;-72
2021/12/29 12:55:58;;;;;;;0.50;0.50;;;;;;;10.16;86.03;98217.81;4918356;29;20059;-72
2021/12/29 12:58:28;;;;;;;0.30;0.30;;;;;;;10.16;85.30;98225.59;4918817;29;20036;-72
2021/12/29 13:00:59;;;;;;;0.43;0.43;;;;;;;10.03;84.96;98236.22;4918551;29;20120;-71
2021/12/29 13:03:25;;;;;;;0.52;0.52;;;;;;;10.08;85.25;98230.09;4918568;29;20020;-72
2021/12/29 13:05:56;;;;;;;0.20;0.20;;;;;;;10.15;84.40;98231.63;4920562;29;20190;-72
2021/12/29 13:08:25;;;;;;;0.50;0.50;;;;;;;10.08;85.32;98240.44;4921479;29;20042;-71
2021/12/29 13:10:57;;;;;;;0.60;0.60;;;;;;;10.14;85.68;98224.75;4918570;29;20028;-72
2021/12/29 13:13:35;;;;;;;3.80;0.85;;;;;;;10.11;85.10;98219.69;4918438;29;20027;-72
2021/12/29 13:16:04;;;;;;;0.73;0.73;;;;;;;10.15;84.74;98221.28;4916871;29;20024;-72
2021/12/29 13:18:30;;;;;;;1.03;1.03;;;;;;;10.18;84.45;98213.44;4917995;29;20148;-72
2021/12/29 13:21:00;;;;;;;1.15;0.73;;;;;;;10.35;83.67;98213.91;4917990;29;20337;-72
2021/12/29 13:23:27;;;;;;;0.73;0.73;;;;;;;10.23;82.58;98224.53;4918291;29;20020;-72
2021/12/29 13:25:56;;;;;;;0.68;0.68;;;;;;;10.13;83.36;98223.06;4918236;29;20063;-72
2021/12/29 13:28:22;;;;;;;0.60;0.60;;;;;;;10.20;85.45;98222.00;4918095;29;20039;-72
2021/12/29 13:30:52;;;;;;;0.50;0.50;;;;;;;10.18;83.93;98218.63;4918042;29;20024;-73
2021/12/29 13:33:35;;;;;;;1.02;0.65;;;;;;;10.03;84.73;98218.13;4917830;29;20024;-72
2021/12/29 13:36:02;;;;;;;4.63;1.17;;;;;;;10.15;85.47;98216.09;4921609;29;20032;-72
2021/12/29 13:38:32;;;;;;;1.23;1.08;;;;;;;10.11;85.25;98209.31;4920189;29;20028;-72
2021/12/29 13:41:01;;;;;;;0.65;0.52;;;;;;;10.13;85.33;98210.13;4917832;29;20024;-72
2021/12/29 13:43:29;;;;;;;5.37;3.87;;;;;;;10.11;83.80;98209.31;4917763;29;20039;-73
2021/12/29 13:45:55;;;;;;;0.40;0.40;;;;;;;10.11;84.42;98215.34;4917451;29;20733;-70
2021/12/29 13:48:26;;;;;;;0.85;0.60;;;;;;;10.21;84.68;98213.38;4917745;29;20028;-70
2021/12/29 13:51:13;;;;;;;0.40;0.40;;;;;;;10.16;83.51;98212.66;4910357;29;20046;-70
2021/12/29 13:53:45;;;;;;;0.47;0.47;;;;;;;10.01;84.86;98219.91;4917268;29;20028;-70
2021/12/29 13:56:12;;;;;;;2.53;2.08;;;;;;;9.98;85.23;98230.31;4917376;29;20032;-71
2021/12/29 13:58:39;;;;;;;0.50;0.50;;;;;;;10.02;85.11;98231.09;4917473;29;20028;-72
2021/12/29 14:01:05;;;;;;;2.42;1.00;;;;;;;10.04;83.61;98227.56;4917485;29;20034;-72
2021/12/29 14:03:31;;;;;;;3.60;2.35;;;;;;;9.96;84.02;98232.09;4917527;29;20091;-72
2021/12/29 14:06:06;;;;;;;7.20;2.20;;;;;;;9.89;82.53;98225.38;4920530;29;20481;-71
2021/12/29 14:08:33;;;;;;;2.58;1.67;;;;;;;10.00;82.84;98228.53;4919080;29;20490;-72
2021/12/29 14:11:01;;;;;;;0.52;0.52;;;;;;;10.11;82.02;98235.22;4917230;29;20032;-71
2021/12/29 14:13:30;;;;;;;0.57;0.57;;;;;;;10.07;82.12;98243.94;4917195;29;20120;-71
2021/12/29 14:16:03;;;;;;;0.50;0.50;;;;;;;10.03;82.03;98236.22;4916770;29;20028;-71
2021/12/29 14:18:28;;;;;;;3.22;0.93;;;;;;;9.93;82.11;98216.66;4916820;29;20042;-72
2021/12/29 14:20:55;;;;;;;1.17;0.57;;;;;;;9.86;81.58;98220.25;4916783;29;20115;-71
2021/12/29 14:23:32;;;;;;;0.68;0.68;;;;;;;9.90;81.35;98221.88;4917039;29;20095;-71
2021/12/29 14:26:09;;;;;;;3.00;1.70;;;;;;;9.83;83.93;98224.69;4916676;29;20076;-71
2021/12/29 14:28:36;;;;;;;8.50;2.72;;;;;;;9.79;82.76;98229.06;4917109;29;20393;-72
2021/12/29 14:31:08;;;;;;;2.83;1.48;;;;;;;9.70;84.07;98218.94;4916927;29;20394;-71
2021/12/29 14:33:39;;;;;;;9.30;3.47;;;;;;;9.75;83.48;98237.78;4916672;29;20064;-72
2021/12/29 14:36:06;;;;;;;4.82;1.52;;;;;;;9.73;83.51;98235.25;4921024;29;20024;-72
2021/12/29 14:38:32;;;;;;;6.70;2.75;;;;;;;9.61;84.66;98247.59;4918497;29;20028;-72
2021/12/29 14:40:57;;;;;;;6.05;2.33;;;;;;;9.67;83.88;98239.69;4916683;29;20063;-72
2021/12/29 14:43:26;;;;;;;1.77;1.67;;;;;;;9.59;83.58;98241.63;4916574;29;20032;-72
2021/12/29 14:46:04;;;;;;;0.50;0.50;;;;;;;9.55;83.67;98250.31;4916373;29;20064;-72
2021/12/29 14:48:30;;;;;;;0.47;0.47;;;;;;;9.59;82.95;98257.13;4916422;29;20032;-72
2021/12/29 14:50:57;;;;;;;0.60;0.60;;;;;;;9.49;83.66;98257.34;4916370;29;20038;-71
2021/12/29 14:53:25;;;;;;;0.70;0.70;;;;;;;9.45;83.82;98258.28;4915168;29;20491;-72
2021/12/29 14:55:52;;;;;;;9.52;0.60;;;;;;;9.51;84.98;98260.72;4916213;29;20024;-71
2021/12/29 14:58:21;;;;;;;0.30;0.30;;;;;;;9.45;83.84;98260.88;4916307;29;20032;-72
2021/12/29 15:00:48;;;;;;;1.55;0.90;;;;;;;9.54;83.00;98254.66;4916494;29;20051;-72
2021/12/29 15:03:15;;;;;;;0.60;0.60;;;;;;;9.36;85.45;98263.66;4916349;29;20032;-72
2021/12/29 15:05:48;;;;;;;0.95;0.65;;;;;;;9.43;84.06;98254.91;4917222;29;20039;-72
2021/12/29 15:08:21;;;;;;;0.43;0.43;;;;;;;9.39;86.02;98250.66;4920513;29;20091;-72
2021/12/29 15:10:54;;;;;;;4.20;0.60;;;;;;;9.49;84.50;98246.16;4916090;29;20482;-72
2021/12/29 15:13:22;;;;;;;0.63;0.63;;;;;;;9.53;85.60;98252.97;4916120;29;20473;-72
2021/12/29 15:15:49;;;;;;;0.50;0.50;;;;;;;9.42;84.17;98253.16;4915739;29;20033;-72
2021/12/29 15:18:19;;;;;;;1.27;0.45;;;;;;;9.31;86.34;98257.72;4916038;29;20028;-72
2021/12/29 15:20:52;;;;;;;0.50;0.50;;;;;;;9.29;85.57;98269.84;4915900;29;20030;-72
2021/12/29 15:23:19;;;;;;;0.50;0.50;;;;;;;9.33;86.43;98271.50;4915974;29;20115;-72
2021/12/29 15:25:45;;;;;;;0.70;0.70;;;;;;;9.43;85.36;98267.81;4915519;29;20039;-72
2021/12/29 15:28:13;;;;;;;0.32;0.32;;;;;;;9.31;86.27;98273.25;4916137;29;20031;-72
2021/12/29 15:30:46;;;;;;;0.38;0.38;;;;;;;9.35;85.95;98280.06;4915967;29;20394;-72
2021/12/29 15:33:11;;;;;;;1.15;0.57;;;;;;;9.38;85.81;98277.41;4915914;29;20079;-72
2021/12/29 15:35:38;;;;;;;0.95;0.95;;;;;;;9.44;86.65;98274.69;4916484;29;20032;-71
2021/12/29 15:38:04;;;;;;;0.80;0.80;;;;;;;9.28;87.18;98270.72;4920623;29;20032;-72
2021/12/29 15:40:30;;;;;;;2.38;2.20;;;;;;;9.20;87.99;98270.88;4915686;29;20034;-72
2021/12/29 15:42:56;;;;;;;1.05;0.98;;;;;;;9.18;87.86;98270.03;4915980;29;20328;-72
2021/12/29 15:45:24;;;;;;;0.30;0.30;;;;;;;9.14;88.13;98265.84;4915702;29;20036;-72
2021/12/29 15:47:49;;;;;;;0.80;0.60;;;;;;;9.13;88.14;98271.03;4915556;29;20100;-72
2021/12/29 15:50:19;;;;;;;0.47;0.47;;;;;;;9.11;89.00;98259.88;4915499;29;20060;-72
2021/12/29 15:52:45;;;;;;;0.52;0.52;;;;;;;9.21;87.86;98266.56;4915621;29;20028;-72
2021/12/29 15:55:11;;;;;;;0.60;0.60;;;;;;;9.13;88.04;98258.09;4915805;29;20039;-72
2021/12/29 15:57:37;;;;;;;0.40;0.40;;;;;;;9.12;89.35;98267.59;4915641;29;20454;-72